createdAt,value
2019-05-09T00:00:24.543Z,40.39
2019-05-09T00:02:50.890Z,40.51
2019-05-09T00:05:17.212Z,41.47
2019-05-09T00:07:44.016Z,39.90
2019-05-09T00:10:11.427Z,38.64
2019-05-09T00:12:37.713Z,37.86
2019-05-09T00:15:04.798Z,38.04
2019-05-09T00:17:31.111Z,39.40
2019-05-09T00:19:59.199Z,37.34
2019-05-09T00:22:25.371Z,37.28
2019-05-09T00:24:53.789Z,38.07
2019-05-09T00:27:19.684Z,37.21
2019-05-09T00:29:47.747Z,36.21
2019-05-09T00:32:18.383Z,35.92
2019-05-09T00:34:58.167Z,36.17
2019-05-09T00:37:43.199Z,36.96
2019-05-09T00:40:09.697Z,37.02
2019-05-09T00:42:35.980Z,38.11
2019-05-09T00:45:06.674Z,37.93
2019-05-09T00:47:33.038Z,36.76
2019-05-09T00:49:59.224Z,36.49
2019-05-09T00:52:25.545Z,36.42
2019-05-09T00:54:53.147Z,37.37
2019-05-09T00:57:34.362Z,37.03
2019-05-09T01:00:04.901Z,37.50
2019-05-09T01:02:31.063Z,37.32
2019-05-09T01:04:57.303Z,37.96
2019-05-09T01:07:23.555Z,37.77
2019-05-09T01:09:49.846Z,37.83
2019-05-09T01:12:16.062Z,37.90
2019-05-09T01:14:43.268Z,38.05
2019-05-09T01:17:09.629Z,37.35
2019-05-09T01:19:35.829Z,37.93
2019-05-09T01:22:03.750Z,38.37
2019-05-09T01:24:30.070Z,36.49
2019-05-09T01:26:56.299Z,37.29
2019-05-09T01:29:23.105Z,38.79
2019-05-09T01:31:49.428Z,38.65
2019-05-09T01:34:20.461Z,38.02
2019-05-09T01:37:05.808Z,38.21
2019-05-09T01:39:33.781Z,38.56
2019-05-09T01:42:00.024Z,37.64
2019-05-09T01:44:27.584Z,37.35
2019-05-09T01:46:54.148Z,37.03
2019-05-09T01:49:20.454Z,37.72
2019-05-09T01:51:46.636Z,38.24
2019-05-09T01:54:14.337Z,38.23
2019-05-09T01:56:40.526Z,39.57
2019-05-09T01:59:06.685Z,38.72
2019-05-09T02:01:34.400Z,38.28
2019-05-09T02:04:00.763Z,39.03
2019-05-09T02:06:28.084Z,39.61
2019-05-09T02:08:54.760Z,40.12
2019-05-09T02:11:21.035Z,38.50
2019-05-09T02:13:47.214Z,37.35
2019-05-09T02:16:15.323Z,37.32
2019-05-09T02:18:49.204Z,37.20
2019-05-09T02:21:15.388Z,37.86
2019-05-09T02:23:43.179Z,36.24
2019-05-09T02:26:09.686Z,37.56
2019-05-09T02:28:35.842Z,38.05
2019-05-09T02:31:05.189Z,38.83
2019-05-09T02:33:30.245Z,40.13
2019-05-09T02:35:58.292Z,41.38
2019-05-09T02:38:24.598Z,42.57
2019-05-09T02:40:50.782Z,42.02
2019-05-09T02:43:18.629Z,41.88
2019-05-09T02:45:52.834Z,41.40
2019-05-09T02:48:18.680Z,43.05
2019-05-09T02:50:48.240Z,41.81
2019-05-09T02:53:13.183Z,40.97
2019-05-09T02:55:39.354Z,41.27
2019-05-09T02:58:08.283Z,40.79
2019-05-09T03:00:39.490Z,41.88
2019-05-09T03:03:09.666Z,41.64
2019-05-09T03:05:38.297Z,41.18
2019-05-09T03:08:04.113Z,41.67
2019-05-09T03:10:30.277Z,40.72
2019-05-09T03:12:59.412Z,40.74
2019-05-09T03:15:24.877Z,40.28
2019-05-09T03:17:51.062Z,40.20
2019-05-09T03:20:25.151Z,39.59
2019-05-09T03:22:51.341Z,38.38
2019-05-09T03:25:19.137Z,38.37
2019-05-09T03:27:59.462Z,38.19
2019-05-09T03:30:29.087Z,35.35
2019-05-09T03:32:59.417Z,31.98
2019-05-09T03:35:23.745Z,29.91
2019-05-09T03:38:04.973Z,28.34
2019-05-09T03:40:32.172Z,26.99
2019-05-09T03:42:58.473Z,25.91
2019-05-09T03:45:24.648Z,25.22
2019-05-09T03:47:52.762Z,24.99
2019-05-09T03:50:18.962Z,24.63
2019-05-09T03:52:45.125Z,22.90
2019-05-09T03:55:13.544Z,21.48
2019-05-09T03:57:41.606Z,20.25
2019-05-09T04:00:09.180Z,19.94
2019-05-09T04:02:35.382Z,20.17
2019-05-09T04:05:01.551Z,19.76
2019-05-09T04:07:29.716Z,19.39
2019-05-09T04:09:58.386Z,18.24
2019-05-09T04:12:24.008Z,17.65
2019-05-09T04:14:50.159Z,17.32
2019-05-09T04:17:18.127Z,16.45
2019-05-09T04:19:44.743Z,16.70
2019-05-09T04:22:10.903Z,17.56
2019-05-09T04:24:38.337Z,16.33
2019-05-09T04:27:07.796Z,16.40
2019-05-09T04:29:34.157Z,16.63
2019-05-09T04:32:00.448Z,15.88
2019-05-09T04:34:27.574Z,15.39
2019-05-09T04:36:54.079Z,15.53
2019-05-09T04:39:23.661Z,18.45
2019-05-09T04:41:48.843Z,17.40
2019-05-09T04:44:20.908Z,17.62
2019-05-09T04:46:45.232Z,17.15
2019-05-09T04:49:11.493Z,17.86
2019-05-09T04:51:39.341Z,18.25
2019-05-09T04:54:07.324Z,17.90
2019-05-09T04:56:38.039Z,19.66
2019-05-09T04:59:03.839Z,21.19
2019-05-09T05:01:38.927Z,22.35
2019-05-09T05:04:07.735Z,21.28
2019-05-09T05:06:34.180Z,20.27
2019-05-09T05:09:00.366Z,19.17
2019-05-09T05:11:28.025Z,18.92
2019-05-09T05:13:54.248Z,19.34
2019-05-09T05:16:20.511Z,20.39
2019-05-09T05:18:47.814Z,21.16
2019-05-09T05:21:14.218Z,21.79
2019-05-09T05:23:48.336Z,21.33
2019-05-09T05:26:14.718Z,21.74
2019-05-09T05:28:40.901Z,23.30
2019-05-09T05:31:07.481Z,24.47
2019-05-09T05:33:41.665Z,26.38
2019-05-09T05:36:09.757Z,24.78
2019-05-09T05:38:37.667Z,22.72
2019-05-09T05:41:03.990Z,22.35
2019-05-09T05:43:40.832Z,21.27
2019-05-09T05:46:00.170Z,21.98
2019-05-09T05:48:28.248Z,20.66
2019-05-09T05:50:54.452Z,19.68
2019-05-09T05:53:20.605Z,20.78
2019-05-09T05:55:49.399Z,21.17
2019-05-09T05:58:14.900Z,20.37
2019-05-09T06:00:41.149Z,18.88
2019-05-09T06:03:08.770Z,20.91
2019-05-09T06:05:35.323Z,19.40
2019-05-09T06:08:01.499Z,19.79
2019-05-09T06:10:28.981Z,20.57
2019-05-09T06:12:57.572Z,20.53
2019-05-09T06:15:23.578Z,20.50
2019-05-09T06:17:49.836Z,21.92
2019-05-09T06:20:17.712Z,23.63
2019-05-09T06:22:44.229Z,23.17
2019-05-09T06:25:10.406Z,21.78
2019-05-09T06:27:37.555Z,23.17
2019-05-09T06:30:08.460Z,23.04
2019-05-09T06:32:34.150Z,23.74
2019-05-09T06:35:00.336Z,23.15
2019-05-09T06:37:27.695Z,21.86
2019-05-09T06:39:54.198Z,22.17
2019-05-09T06:42:20.393Z,23.65
2019-05-09T06:45:04.685Z,23.21
2019-05-09T06:47:35.296Z,22.31
2019-05-09T06:50:08.011Z,22.37
2019-05-09T06:52:34.504Z,21.47
2019-05-09T06:55:00.711Z,22.31
2019-05-09T06:57:28.085Z,23.54
2019-05-09T06:59:54.662Z,24.70
2019-05-09T07:02:31.557Z,23.04
2019-05-09T07:07:52.305Z,22.36
2019-05-09T07:10:18.467Z,24.05
2019-05-09T07:12:44.791Z,23.67
2019-05-09T07:15:11.071Z,22.75
2019-05-09T07:17:38.720Z,23.10
2019-05-09T07:20:08.151Z,23.26
2019-05-09T07:22:41.187Z,21.57
2019-05-09T07:25:12.851Z,22.30
2019-05-09T07:27:40.457Z,22.44
2019-05-09T07:30:12.589Z,23.19
2019-05-09T07:32:40.678Z,23.25
2019-05-09T07:35:08.902Z,24.84
2019-05-09T07:37:35.245Z,24.55
2019-05-09T07:40:01.425Z,23.87
2019-05-09T07:42:28.466Z,22.59
2019-05-09T07:44:54.925Z,22.29
2019-05-09T07:47:21.108Z,21.50
2019-05-09T07:49:48.247Z,22.46
2019-05-09T07:52:14.790Z,21.95
2019-05-09T07:54:40.960Z,19.59
2019-05-09T07:57:08.572Z,20.10
2019-05-09T07:59:34.958Z,20.81
2019-05-09T08:02:01.228Z,22.87
2019-05-09T08:04:28.604Z,24.50
2019-05-09T08:06:57.502Z,22.19
2019-05-09T08:09:23.200Z,23.14
2019-05-09T08:11:49.373Z,24.30
2019-05-09T08:14:17.635Z,23.22
2019-05-09T08:16:43.671Z,23.04
2019-05-09T08:19:11.198Z,22.70
2019-05-09T08:21:38.282Z,21.52
2019-05-09T08:24:04.788Z,21.11
2019-05-09T08:26:31.257Z,19.40
2019-05-09T08:28:58.392Z,20.08
2019-05-09T08:31:24.881Z,19.34
2019-05-09T08:33:51.054Z,21.17
2019-05-09T08:36:18.067Z,21.18
2019-05-09T08:38:47.608Z,21.53
2019-05-09T08:41:14.425Z,21.86
2019-05-09T08:43:40.733Z,21.33
2019-05-09T08:46:07.902Z,21.58
2019-05-09T08:48:34.406Z,21.75
2019-05-09T08:51:02.516Z,21.13
2019-05-09T08:53:28.693Z,20.10
2019-05-09T08:55:54.978Z,19.02
2019-05-09T08:58:21.212Z,18.78
2019-05-09T09:00:49.011Z,18.02
2019-05-09T09:03:15.533Z,19.07
2019-05-09T09:05:43.673Z,18.93
2019-05-09T09:08:09.830Z,18.70
2019-05-09T09:10:38.498Z,17.32
2019-05-09T09:13:04.234Z,16.31
2019-05-09T09:15:56.139Z,17.08
2019-05-09T09:17:58.571Z,17.07
2019-05-09T09:20:24.801Z,18.16
2019-05-09T09:22:50.990Z,18.23
2019-05-09T09:25:18.447Z,19.52
2019-05-09T09:27:50.178Z,18.54
2019-05-09T09:30:20.222Z,18.72
2019-05-09T09:32:41.242Z,19.96
2019-05-09T09:35:09.257Z,19.60
2019-05-09T09:37:47.719Z,17.79
2019-05-09T09:40:08.646Z,17.75
2019-05-09T09:42:34.944Z,17.82
2019-05-09T09:45:01.109Z,20.11
2019-05-09T09:47:28.604Z,20.19
2019-05-09T09:49:55.894Z,19.15
2019-05-09T09:52:23.385Z,19.37
2019-05-09T09:54:49.562Z,19.04
2019-05-09T09:57:18.819Z,18.84
2019-05-09T09:59:48.353Z,17.83
2019-05-09T10:02:15.781Z,17.24
2019-05-09T10:04:41.983Z,16.75
2019-05-09T10:07:08.913Z,16.24
2019-05-09T10:09:35.533Z,18.07
2019-05-09T10:12:01.940Z,18.60
2019-05-09T10:14:30.061Z,18.41
2019-05-09T10:19:54.184Z,16.82
2019-05-09T10:22:25.026Z,17.04
2019-05-09T10:24:50.368Z,16.56
2019-05-09T10:27:19.750Z,14.98
2019-05-09T10:29:47.963Z,15.18
2019-05-09T10:32:18.251Z,15.66
2019-05-09T10:34:44.244Z,18.11
2019-05-09T10:37:10.619Z,18.92
2019-05-09T10:39:43.584Z,17.72
2019-05-09T10:42:28.646Z,16.25
2019-05-09T10:45:07.433Z,14.61
2019-05-09T10:47:34.872Z,14.92
2019-05-09T10:50:01.040Z,16.91
2019-05-09T10:52:28.339Z,16.21
2019-05-09T10:54:54.936Z,16.19
2019-05-09T10:57:21.131Z,17.74
2019-05-09T10:59:48.258Z,17.25
2019-05-09T11:02:17.383Z,17.50
2019-05-09T11:04:47.024Z,17.91
2019-05-09T11:07:19.163Z,18.21
2019-05-09T11:09:47.874Z,17.46
2019-05-09T11:12:13.473Z,17.04
2019-05-09T11:14:39.687Z,17.76
2019-05-09T11:17:15.898Z,18.06
2019-05-09T11:19:34.980Z,19.27
2019-05-09T11:22:01.161Z,18.16
2019-05-09T11:24:41.144Z,16.77
2019-05-09T11:26:55.720Z,18.00
2019-05-09T11:29:21.906Z,17.18
2019-05-09T11:31:48.116Z,19.59
2019-05-09T11:34:14.293Z,19.70
2019-05-09T11:36:40.471Z,20.71
2019-05-09T11:39:10.727Z,19.42
2019-05-09T11:41:38.155Z,19.95
2019-05-09T11:44:03.432Z,20.41
2019-05-09T11:46:29.648Z,20.90
2019-05-09T11:48:57.937Z,20.67
2019-05-09T11:51:23.891Z,20.65
2019-05-09T11:53:50.103Z,21.90
2019-05-09T11:56:18.055Z,20.50
2019-05-09T11:58:44.662Z,21.30
2019-05-09T12:01:10.971Z,20.56
2019-05-09T12:03:38.920Z,20.72
2019-05-09T12:06:07.795Z,19.92
2019-05-09T12:08:33.517Z,19.79
2019-05-09T12:10:59.706Z,20.47
2019-05-09T12:13:25.869Z,20.36
2019-05-09T12:15:52.088Z,21.03
2019-05-09T12:18:18.380Z,19.50
2019-05-09T12:20:44.557Z,19.42
2019-05-09T12:23:10.873Z,19.28
2019-05-09T12:25:38.603Z,18.41
2019-05-09T12:28:07.672Z,18.96
2019-05-09T12:30:33.244Z,18.10
2019-05-09T12:32:59.497Z,18.03
2019-05-09T12:35:25.654Z,17.68
2019-05-09T12:37:51.864Z,19.09
2019-05-09T12:40:20.157Z,19.23
2019-05-09T12:42:46.209Z,18.86
2019-05-09T12:45:12.514Z,18.38
2019-05-09T12:47:39.690Z,17.20
2019-05-09T12:50:08.679Z,16.98
2019-05-09T12:52:35.064Z,17.71
2019-05-09T12:55:01.238Z,17.42
2019-05-09T12:57:28.911Z,17.85
2019-05-09T12:59:55.563Z,16.99
2019-05-09T13:02:21.809Z,17.94
2019-05-09T13:04:48.115Z,16.92
2019-05-09T13:07:14.315Z,17.17
2019-05-09T13:09:40.479Z,17.13
2019-05-09T13:12:08.597Z,18.17
2019-05-09T13:14:34.802Z,17.25
2019-05-09T13:17:19.655Z,16.82
2019-05-09T13:19:49.793Z,16.55
2019-05-09T13:22:18.333Z,16.15
2019-05-09T13:24:44.023Z,17.54
2019-05-09T13:27:10.331Z,18.78
2019-05-09T13:29:39.678Z,17.64
2019-05-09T13:32:05.832Z,18.14
2019-05-09T13:34:32.038Z,17.84
2019-05-09T13:36:59.055Z,18.63
2019-05-09T13:39:27.789Z,18.58
2019-05-09T13:41:53.728Z,18.61
2019-05-09T13:44:19.918Z,20.38
2019-05-09T13:46:48.595Z,20.23
2019-05-09T13:49:15.728Z,19.06
2019-05-09T13:51:51.005Z,19.90
2019-05-09T13:54:12.301Z,18.24
2019-05-09T13:56:38.592Z,18.39
2019-05-09T13:59:04.758Z,18.09
2019-05-09T14:01:34.041Z,17.06
2019-05-09T14:04:00.242Z,18.38
2019-05-09T14:06:27.724Z,17.93
2019-05-09T14:08:54.288Z,17.77
2019-05-09T14:11:20.479Z,18.05
2019-05-09T14:13:48.830Z,17.78
2019-05-09T14:16:21.548Z,17.61
2019-05-09T14:18:42.987Z,17.63
2019-05-09T14:21:09.290Z,18.20
2019-05-09T14:23:48.388Z,17.30
2019-05-09T14:26:09.141Z,16.77
2019-05-09T14:28:34.718Z,17.18
2019-05-09T14:31:00.872Z,17.33
2019-05-09T14:33:29.611Z,18.25
2019-05-09T14:35:59.611Z,18.64
2019-05-09T14:38:25.790Z,19.89
2019-05-09T14:40:51.967Z,18.84
2019-05-09T14:43:21.343Z,18.36
2019-05-09T14:45:48.379Z,18.02
2019-05-09T14:48:14.891Z,18.24
2019-05-09T14:50:41.059Z,18.85
2019-05-09T14:53:08.638Z,18.50
2019-05-09T14:55:35.125Z,18.21
2019-05-09T14:58:01.325Z,18.70
2019-05-09T15:00:27.490Z,23.14
2019-05-09T15:02:53.687Z,23.50
2019-05-09T15:05:19.872Z,25.72
2019-05-09T15:07:47.630Z,24.70
2019-05-09T15:10:14.100Z,23.78
2019-05-09T15:12:41.798Z,22.62
2019-05-09T15:15:08.792Z,22.75
2019-05-09T15:17:35.799Z,22.39
2019-05-09T15:20:03.457Z,23.82
2019-05-09T15:22:29.686Z,23.59
2019-05-09T15:24:55.880Z,24.79
2019-05-09T15:27:22.045Z,25.91
2019-05-09T15:29:48.727Z,24.89
2019-05-09T15:32:15.235Z,26.84
2019-05-09T15:34:41.437Z,25.64
2019-05-09T15:37:08.819Z,25.90
2019-05-09T15:39:37.959Z,24.28
2019-05-09T15:42:07.387Z,25.71
2019-05-09T15:44:33.545Z,25.28
2019-05-09T15:47:01.697Z,26.92
2019-05-09T15:49:28.574Z,25.21
2019-05-09T15:51:55.059Z,26.03
2019-05-09T15:54:21.264Z,25.73
2019-05-09T15:56:57.869Z,25.92
2019-05-09T15:59:23.779Z,27.49
2019-05-09T16:01:50.027Z,26.38
2019-05-09T16:04:17.678Z,28.90
2019-05-09T16:06:49.459Z,27.96
2019-05-09T16:09:13.558Z,27.90
2019-05-09T16:11:39.741Z,31.18
2019-05-09T16:14:07.603Z,31.15
2019-05-09T16:16:35.764Z,31.25
2019-05-09T16:19:03.756Z,31.52
2019-05-09T16:21:29.985Z,32.48
2019-05-09T16:23:59.075Z,30.96
2019-05-09T16:26:24.483Z,31.47
2019-05-09T16:28:50.693Z,31.47
2019-05-09T16:31:16.899Z,31.00
2019-05-09T16:33:43.151Z,33.65
2019-05-09T16:36:09.375Z,31.88
2019-05-09T16:38:45.061Z,33.05
2019-05-09T16:41:07.432Z,31.90
2019-05-09T16:43:33.697Z,32.67
2019-05-09T16:45:59.996Z,30.38
2019-05-09T16:48:27.716Z,30.83
2019-05-09T16:51:03.144Z,30.66
2019-05-09T16:53:25.154Z,30.40
2019-05-09T16:55:51.412Z,30.24
2019-05-09T16:58:18.542Z,30.31
2019-05-09T17:00:48.586Z,30.97
2019-05-09T17:03:14.759Z,31.89
2019-05-09T17:05:40.963Z,31.89
2019-05-09T17:08:08.200Z,30.68
2019-05-09T17:10:34.924Z,31.35
2019-05-09T17:13:01.144Z,31.97
2019-05-09T17:15:29.272Z,31.25
2019-05-09T17:17:55.461Z,32.40
2019-05-09T17:20:23.599Z,32.45
2019-05-09T17:23:14.440Z,32.37
2019-05-09T17:25:38.484Z,33.13
2019-05-09T17:28:06.796Z,33.36
2019-05-09T17:30:33.250Z,34.04
2019-05-09T17:33:03.498Z,35.66
2019-05-09T17:35:32.022Z,35.77
2019-05-09T17:37:58.392Z,35.58
2019-05-09T17:40:28.150Z,35.70
2019-05-09T17:42:54.651Z,35.13
2019-05-09T17:45:20.831Z,35.84
2019-05-09T17:47:48.669Z,36.68
2019-05-09T17:50:14.844Z,37.53
2019-05-09T17:52:41.227Z,35.80
2019-05-09T17:55:07.522Z,36.63
2019-05-09T17:57:38.607Z,36.48
2019-05-09T18:00:08.151Z,37.11
2019-05-09T18:02:34.444Z,37.10
2019-05-09T18:05:00.597Z,38.83
2019-05-09T18:07:28.010Z,38.58
2019-05-09T18:09:54.659Z,38.83
2019-05-09T18:12:20.846Z,39.60
2019-05-09T18:14:47.651Z,39.42
2019-05-09T18:17:13.961Z,39.96
2019-05-09T18:19:45.061Z,38.62
2019-05-09T18:22:14.126Z,40.42
2019-05-09T18:24:40.324Z,40.95
2019-05-09T18:27:07.751Z,41.97
2019-05-09T18:29:34.032Z,42.34
2019-05-09T18:32:19.191Z,43.05
2019-05-09T18:34:45.450Z,42.79
2019-05-09T18:37:11.748Z,44.33
2019-05-09T18:39:37.952Z,45.45
2019-05-09T18:42:04.281Z,45.52
2019-05-09T18:44:30.459Z,46.13
2019-05-09T18:46:57.661Z,47.10
2019-05-09T18:49:24.214Z,49.84
2019-05-09T18:52:02.789Z,48.95
2019-05-09T18:54:18.741Z,48.25
2019-05-09T18:56:45.005Z,48.49
2019-05-09T18:59:11.222Z,49.08
2019-05-09T19:01:37.385Z,48.44
2019-05-09T19:04:03.547Z,47.88
2019-05-09T19:06:29.727Z,46.46
2019-05-09T19:08:55.940Z,45.64
2019-05-09T19:11:22.202Z,46.75
2019-05-09T19:13:48.375Z,46.39
2019-05-09T19:16:16.517Z,44.95
2019-05-09T19:18:44.575Z,45.08
2019-05-09T19:21:15.313Z,45.91
2019-05-09T19:23:41.532Z,46.78
2019-05-09T19:26:09.594Z,44.26
2019-05-09T19:28:35.826Z,45.09
2019-05-09T19:31:02.149Z,43.86
2019-05-09T19:33:30.301Z,43.40
2019-05-09T19:35:56.618Z,43.86
2019-05-09T19:38:22.804Z,44.31
2019-05-09T19:40:48.987Z,44.06
2019-05-09T19:43:15.296Z,43.73
2019-05-09T19:45:41.503Z,43.50
2019-05-09T19:48:07.689Z,43.56
2019-05-09T19:50:33.848Z,43.84
2019-05-09T19:53:00.051Z,43.61
2019-05-09T19:55:26.267Z,43.09
2019-05-09T19:57:52.509Z,43.86
2019-05-09T20:00:19.095Z,44.29
2019-05-09T20:02:45.376Z,44.59
2019-05-09T20:05:11.570Z,44.91
2019-05-09T20:07:37.907Z,44.81
2019-05-09T20:10:09.850Z,44.66
2019-05-09T20:12:54.723Z,44.15
2019-05-09T20:15:22.289Z,44.30
2019-05-09T20:17:48.448Z,43.82
2019-05-09T20:20:14.653Z,44.02
2019-05-09T20:22:52.006Z,43.66
2019-05-09T20:25:09.481Z,43.80
2019-05-09T20:27:35.668Z,43.48
2019-05-09T20:30:03.590Z,44.05
2019-05-09T20:32:30.045Z,43.70
2019-05-09T20:34:56.221Z,42.97
2019-05-09T20:37:22.411Z,42.65
2019-05-09T20:39:48.645Z,42.99
2019-05-09T20:42:14.932Z,43.00
2019-05-09T20:44:41.107Z,42.92
2019-05-09T20:47:07.261Z,42.56
2019-05-09T20:49:33.461Z,42.80
2019-05-09T20:51:59.640Z,43.20
2019-05-09T20:54:25.892Z,43.21
2019-05-09T20:56:52.120Z,43.40
2019-05-09T20:59:18.257Z,43.31
2019-05-09T21:01:44.410Z,42.97
2019-05-09T21:04:10.628Z,43.17
2019-05-09T21:06:36.800Z,42.99
2019-05-09T21:09:05.557Z,43.31
2019-05-09T21:11:31.745Z,43.49
2019-05-09T21:13:57.915Z,43.58
2019-05-09T21:16:24.163Z,43.44
2019-05-09T21:18:50.375Z,43.98
2019-05-09T21:21:16.559Z,43.51
2019-05-09T21:23:42.721Z,44.21
2019-05-09T21:26:08.916Z,45.04
2019-05-09T21:28:35.099Z,44.67
2019-05-09T21:31:01.326Z,44.70
2019-05-09T21:33:27.629Z,45.59
2019-05-09T21:35:53.810Z,46.41
2019-05-09T21:38:19.955Z,46.08
2019-05-09T21:40:46.166Z,44.60
2019-05-09T21:43:12.333Z,44.15
2019-05-09T21:45:38.508Z,46.15
2019-05-09T21:48:04.707Z,48.54
2019-05-09T21:50:30.856Z,47.38
2019-05-09T21:52:57.335Z,45.77
2019-05-09T21:55:23.516Z,44.79
2019-05-09T21:57:49.695Z,44.48
2019-05-09T22:00:21.376Z,44.83
2019-05-09T22:02:47.583Z,45.66
2019-05-09T22:05:13.744Z,44.88
2019-05-09T22:07:39.891Z,44.03
2019-05-09T22:10:06.643Z,43.76
2019-05-09T22:12:32.868Z,45.63
2019-05-09T22:14:59.021Z,45.54
2019-05-09T22:17:29.973Z,46.47
2019-05-09T22:19:56.157Z,48.25
2019-05-09T22:22:22.310Z,45.87
2019-05-09T22:24:48.497Z,45.08
2019-05-09T22:27:14.676Z,43.78
2019-05-09T22:29:40.845Z,44.29
2019-05-09T22:32:07.192Z,44.99
2019-05-09T22:34:33.359Z,44.92
2019-05-09T22:36:59.516Z,44.59
2019-05-09T22:39:25.713Z,43.75
2019-05-09T22:41:51.884Z,43.82
2019-05-09T22:44:18.052Z,43.70
2019-05-09T22:46:44.233Z,43.39
2019-05-09T22:49:10.384Z,44.86
2019-05-09T22:51:36.568Z,45.57
2019-05-09T22:54:12.319Z,44.47
2019-05-09T22:56:31.031Z,44.60
2019-05-09T22:58:57.304Z,44.57
2019-05-09T23:01:23.600Z,43.97
2019-05-09T23:03:49.874Z,44.33
2019-05-09T23:06:16.051Z,43.92
2019-05-09T23:08:42.349Z,43.71
2019-05-09T23:11:08.500Z,43.29
2019-05-09T23:13:36.573Z,43.06
2019-05-09T23:16:02.854Z,43.06
2019-05-09T23:18:29.020Z,42.86
2019-05-09T23:20:55.695Z,43.36
2019-05-09T23:23:38.643Z,43.34
2019-05-09T23:26:04.917Z,43.80
2019-05-09T23:28:31.191Z,42.83
2019-05-09T23:30:59.285Z,42.42
2019-05-09T23:33:27.706Z,42.48
2019-05-09T23:35:53.865Z,42.10
2019-05-09T23:38:20.185Z,42.32
2019-05-09T23:40:46.328Z,42.45
2019-05-09T23:43:12.509Z,42.53
2019-05-09T23:45:38.796Z,42.82
2019-05-09T23:48:04.953Z,42.24
2019-05-09T23:50:31.126Z,43.46
2019-05-09T23:52:57.322Z,45.74
2019-05-09T23:55:42.095Z,44.96
2019-05-09T23:58:26.491Z,43.82
